Time;durP1;ratioP1;P1;durP2;ratioP2;P2;SDS_P1;SDS_P2;PMS_P1;PMS_P2;Temp;Humidity;BMP_temperature;BMP_pressure;BME280_temperature;BME280_humidity;BME280_pressure;Samples;Min_cycle;Max_cycle;Signal;HPM_P1;HPM_P2
2022/02/11 00:00:53;;;;;;;;;;;18.50;99.90;;;;;;5015551;28;1321;-47
2022/02/11 00:06:56;;;;;;;;;;;18.30;99.90;;;;;;5016148;28;1377;-47
2022/02/11 00:09:25;;;;;;;;;;;18.30;99.90;;;;;;5014790;28;1143;-47
2022/02/11 00:11:51;;;;;;;;;;;18.20;99.90;;;;;;5016375;28;1093;-47
2022/02/11 00:14:17;;;;;;;;;;;18.10;99.90;;;;;;5016255;28;1965;-46
2022/02/11 00:16:43;;;;;;;;;;;18.10;99.90;;;;;;5016600;28;1064;-47
2022/02/11 00:19:10;;;;;;;;;;;18.10;99.90;;;;;;5016473;28;799;-47
2022/02/11 00:21:35;;;;;;;;;;;18.00;99.90;;;;;;5016277;28;1099;-47
2022/02/11 00:24:02;;;;;;;;;;;17.90;99.90;;;;;;5016181;28;857;-47
2022/02/11 00:26:33;;;;;;;;;;;17.90;99.90;;;;;;5016409;28;1031;-47
2022/02/11 00:34:15;;;;;;;;;;;17.70;99.90;;;;;;5016472;28;1910;-46
2022/02/11 00:36:54;;;;;;;;;;;17.70;99.90;;;;;;5011178;28;790;-47
2022/02/11 01:03:58;;;;;;;;;;;17.10;99.90;;;;;;5018345;28;1371;-56
2022/02/11 01:06:26;;;;;;;;;;;17.10;99.90;;;;;;5017001;28;801;-56
2022/02/11 01:08:53;;;;;;;;;;;17.00;99.90;;;;;;4998454;28;811;-56
2022/02/11 01:11:27;;;;;;;;;;;17.00;99.90;;;;;;5016006;28;944;-56
2022/02/11 01:13:54;;;;;;;;;;;16.90;99.90;;;;;;5016022;28;1906;-57
2022/02/11 01:16:27;;;;;;;;;;;16.90;99.90;;;;;;5015718;28;831;-56
2022/02/11 01:19:04;;;;;;;;;;;16.80;99.90;;;;;;5015924;28;807;-56
2022/02/11 01:21:39;;;;;;;;;;;16.80;99.90;;;;;;5015716;28;1094;-56
2022/02/11 01:27:11;;;;;;;;;;;16.70;99.90;;;;;;5015943;28;792;-56
2022/02/11 01:34:56;;;;;;;;;;;16.60;99.90;;;;;;5017379;28;1965;-56
2022/02/11 01:44:13;;;;;;;;;;;16.50;99.90;;;;;;5075206;23;1758;-46
2022/02/11 01:51:59;;;;;;;;;;;16.40;99.90;;;;;;5079036;28;773;-56
2022/02/11 01:54:45;;;;;;;;;;;16.30;99.90;;;;;;5079331;28;1976;-56
2022/02/11 02:00:44;;;;;;;;;;;16.30;99.90;;;;;;5062243;28;1299;-56
2022/02/11 02:06:02;;;;;;;;;;;16.20;99.90;;;;;;5078887;28;786;-56
2022/02/11 02:24:37;;;;;;;;;;;16.00;99.90;;;;;;5063497;28;857;-56
2022/02/11 02:33:08;;;;;;;;;;;15.90;99.90;;;;;;5078276;28;837;-56
2022/02/11 02:57:04;;;;;;;;;;;15.70;99.90;;;;;;5077684;28;799;-56
2022/02/11 03:02:10;;;;;;;;;;;15.60;99.90;;;;;;5077883;28;786;-56
2022/02/11 03:34:53;;;;;;;;;;;15.30;99.90;;;;;;5077104;28;1909;-56
2022/02/11 03:56:43;;;;;;;;;;;15.10;99.90;;;;;;5076593;28;782;-56
2022/02/11 04:21:58;;;;;;;;;;;14.90;99.90;;;;;;5076138;28;866;-56
2022/02/11 04:59:56;;;;;;;;;;;14.60;99.90;;;;;;5075738;28;786;-55
2022/02/11 05:02:25;;;;;;;;;;;14.60;99.90;;;;;;5074902;28;860;-56
2022/02/11 05:04:53;;;;;;;;;;;14.60;99.90;;;;;;5074930;28;929;-55
2022/02/11 05:07:19;;;;;;;;;;;14.60;99.90;;;;;;5075089;28;1016;-55
2022/02/11 05:09:46;;;;;;;;;;;14.50;99.90;;;;;;5077202;28;877;-55
2022/02/11 05:12:13;;;;;;;;;;;14.50;99.90;;;;;;5079486;28;781;-55
2022/02/11 05:14:38;;;;;;;;;;;14.50;99.90;;;;;;5079487;28;1975;-57
2022/02/11 05:17:04;;;;;;;;;;;14.50;99.90;;;;;;5079510;28;770;-56
2022/02/11 05:19:30;;;;;;;;;;;14.50;99.90;;;;;;5079126;28;1017;-55
2022/02/11 05:21:56;;;;;;;;;;;14.50;99.90;;;;;;5079473;28;800;-56
2022/02/11 05:24:22;;;;;;;;;;;14.40;99.90;;;;;;5079737;28;1162;-55
2022/02/11 05:26:48;;;;;;;;;;;14.40;99.90;;;;;;5079272;28;844;-55
2022/02/11 05:29:14;;;;;;;;;;;14.40;99.90;;;;;;5079211;28;867;-56
2022/02/11 05:31:40;;;;;;;;;;;14.40;99.90;;;;;;5079440;28;837;-56
2022/02/11 05:34:06;;;;;;;;;;;14.40;99.90;;;;;;5079513;28;1960;-56
2022/02/11 05:36:32;;;;;;;;;;;14.40;99.90;;;;;;5079037;28;962;-55
2022/02/11 05:38:58;;;;;;;;;;;14.40;99.90;;;;;;5074974;28;773;-55
2022/02/11 05:41:24;;;;;;;;;;;14.30;99.90;;;;;;5078902;28;847;-56
2022/02/11 05:43:50;;;;;;;;;;;14.30;99.90;;;;;;5073960;28;1473;-56
2022/02/11 05:46:16;;;;;;;;;;;14.30;99.90;;;;;;5076633;28;1285;-55
2022/02/11 05:48:43;;;;;;;;;;;14.30;99.90;;;;;;5079005;28;1131;-56
2022/02/11 05:51:09;;;;;;;;;;;14.30;99.90;;;;;;5078472;28;922;-56
2022/02/11 05:53:35;;;;;;;;;;;14.30;99.90;;;;;;5078921;28;960;-56
2022/02/11 05:56:01;;;;;;;;;;;14.30;99.90;;;;;;5078277;28;1906;-56
2022/02/11 05:58:27;;;;;;;;;;;14.30;99.90;;;;;;5072665;28;778;-55
2022/02/11 06:00:53;;;;;;;;;;;14.30;99.90;;;;;;5078727;28;772;-55
2022/02/11 06:03:20;;;;;;;;;;;14.30;99.90;;;;;;5078744;28;798;-55
2022/02/11 06:05:46;;;;;;;;;;;14.30;99.90;;;;;;5078708;28;909;-56
2022/02/11 06:08:12;;;;;;;;;;;14.40;99.90;;;;;;5078630;28;818;-55
2022/02/11 06:10:38;;;;;;;;;;;14.40;99.90;;;;;;5078409;28;930;-55
2022/02/11 06:13:04;;;;;;;;;;;14.40;99.90;;;;;;5078473;28;824;-55
2022/02/11 06:15:30;;;;;;;;;;;14.50;99.90;;;;;;5077720;28;1975;-55
2022/02/11 06:17:56;;;;;;;;;;;14.50;99.90;;;;;;5078019;28;1040;-56
2022/02/11 06:20:27;;;;;;;;;;;14.50;99.90;;;;;;5077774;28;1201;-55
2022/02/11 06:22:54;;;;;;;;;;;14.60;99.90;;;;;;5078071;28;885;-55
2022/02/11 06:25:20;;;;;;;;;;;14.60;99.90;;;;;;5078218;28;762;-56
2022/02/11 06:27:46;;;;;;;;;;;14.70;99.90;;;;;;5078158;28;844;-55
2022/02/11 06:30:13;;;;;;;;;;;14.70;99.90;;;;;;5078332;28;763;-55
2022/02/11 06:32:39;;;;;;;;;;;14.70;99.90;;;;;;5077443;28;975;-56
2022/02/11 06:35:06;;;;;;;;;;;14.80;99.90;;;;;;5060263;28;1976;-55
2022/02/11 06:37:32;;;;;;;;;;;14.80;99.90;;;;;;5072203;28;1013;-55
2022/02/11 06:39:58;;;;;;;;;;;14.80;99.90;;;;;;5078093;28;839;-56
2022/02/11 06:42:24;;;;;;;;;;;14.90;99.90;;;;;;5077731;28;1153;-55
2022/02/11 06:44:51;;;;;;;;;;;14.90;99.90;;;;;;5077876;28;753;-55
2022/02/11 06:47:17;;;;;;;;;;;14.90;99.90;;;;;;5077824;28;906;-55
2022/02/11 06:49:43;;;;;;;;;;;15.00;99.90;;;;;;5078000;28;780;-55
2022/02/11 06:52:09;;;;;;;;;;;15.00;99.90;;;;;;5077961;28;837;-55
2022/02/11 06:54:36;;;;;;;;;;;15.00;99.90;;;;;;5077819;28;1989;-55
2022/02/11 06:57:02;;;;;;;;;;;15.10;99.90;;;;;;5076599;28;1052;-55
2022/02/11 06:59:28;;;;;;;;;;;15.10;99.90;;;;;;5077972;28;907;-55
2022/02/11 07:01:54;;;;;;;;;;;15.10;99.90;;;;;;5077880;28;837;-56
2022/02/11 07:04:20;;;;;;;;;;;15.20;99.90;;;;;;5077913;28;1527;-55
2022/02/11 07:06:46;;;;;;;;;;;15.20;99.90;;;;;;5071281;28;769;-55
2022/02/11 07:09:13;;;;;;;;;;;15.20;99.90;;;;;;5077822;28;765;-56
2022/02/11 07:11:39;;;;;;;;;;;15.20;99.90;;;;;;5077211;28;869;-56
2022/02/11 07:14:05;;;;;;;;;;;15.20;99.90;;;;;;5076145;28;869;-55
2022/02/11 07:16:30;;;;;;;;;;;15.20;99.90;;;;;;5074510;28;1959;-55
2022/02/11 07:18:56;;;;;;;;;;;15.30;99.90;;;;;;5077278;28;865;-55
2022/02/11 07:21:22;;;;;;;;;;;15.30;99.90;;;;;;5077455;28;768;-55
2022/02/11 07:23:48;;;;;;;;;;;15.30;99.90;;;;;;5059544;28;1000;-55
2022/02/11 07:26:15;;;;;;;;;;;15.30;99.90;;;;;;5077045;28;897;-56
2022/02/11 07:28:40;;;;;;;;;;;15.30;99.90;;;;;;5077051;28;1354;-56
2022/02/11 07:31:06;;;;;;;;;;;15.30;99.90;;;;;;5081969;28;966;-56
2022/02/11 07:33:32;;;;;;;;;;;15.30;99.90;;;;;;5075227;28;970;-55
2022/02/11 07:35:58;;;;;;;;;;;15.40;99.90;;;;;;5073837;28;1969;-55
2022/02/11 07:38:24;;;;;;;;;;;15.40;99.90;;;;;;5076833;28;938;-55
2022/02/11 07:40:51;;;;;;;;;;;15.40;99.90;;;;;;5076676;28;800;-55
2022/02/11 07:43:16;;;;;;;;;;;15.40;99.90;;;;;;5075585;28;1034;-56
2022/02/11 07:45:42;;;;;;;;;;;15.40;99.90;;;;;;5074233;28;1179;-55
2022/02/11 07:48:08;;;;;;;;;;;15.40;99.90;;;;;;5071857;28;769;-55
2022/02/11 07:50:34;;;;;;;;;;;15.50;99.90;;;;;;5076620;28;1052;-56
2022/02/11 07:53:00;;;;;;;;;;;15.50;99.90;;;;;;5076946;28;914;-56
2022/02/11 07:55:26;;;;;;;;;;;15.50;99.90;;;;;;5074469;28;1898;-56
2022/02/11 07:57:53;;;;;;;;;;;15.50;99.90;;;;;;5076658;28;768;-55
2022/02/11 08:00:21;;;;;;;;;;;15.90;99.90;;;;;;5075351;28;1024;-55
2022/02/11 08:02:47;;;;;;;;;;;16.00;99.90;;;;;;5075957;28;890;-56
2022/02/11 08:05:13;;;;;;;;;;;15.90;99.90;;;;;;5076683;28;854;-55
2022/02/11 08:07:41;;;;;;;;;;;15.80;99.90;;;;;;5075815;28;909;-56
2022/02/11 08:10:07;;;;;;;;;;;15.80;99.90;;;;;;5075897;28;937;-55
2022/02/11 08:12:34;;;;;;;;;;;15.70;99.90;;;;;;5075963;28;842;-56
2022/02/11 08:15:01;;;;;;;;;;;15.70;99.90;;;;;;5075974;28;1923;-55
2022/02/11 08:17:27;;;;;;;;;;;15.70;99.90;;;;;;5075383;28;918;-56
2022/02/11 08:19:53;;;;;;;;;;;15.70;99.90;;;;;;5076108;28;813;-56
2022/02/11 08:22:19;;;;;;;;;;;15.70;99.90;;;;;;5074614;28;1033;-56
2022/02/11 08:24:44;;;;;;;;;;;15.80;99.90;;;;;;5074508;28;857;-56
2022/02/11 08:27:13;;;;;;;;;;;15.80;99.90;;;;;;5075988;28;763;-55
2022/02/11 08:29:40;;;;;;;;;;;15.80;99.90;;;;;;5073136;28;1218;-46
2022/02/11 08:32:06;;;;;;;;;;;15.80;99.90;;;;;;5076136;28;1207;-46
2022/02/11 08:34:33;;;;;;;;;;;15.80;99.90;;;;;;5075946;28;1981;-56
2022/02/11 08:36:58;;;;;;;;;;;15.90;99.90;;;;;;5058137;28;849;-56
2022/02/11 08:39:24;;;;;;;;;;;15.80;99.90;;;;;;5075851;28;859;-55
2022/02/11 08:41:50;;;;;;;;;;;15.90;99.90;;;;;;5075665;28;805;-55
2022/02/11 08:44:16;;;;;;;;;;;15.90;99.90;;;;;;5075852;28;820;-55
2022/02/11 08:46:42;;;;;;;;;;;15.90;99.90;;;;;;5075938;28;781;-57
2022/02/11 08:49:08;;;;;;;;;;;15.90;99.90;;;;;;5075145;28;1063;-57
2022/02/11 08:51:34;;;;;;;;;;;15.90;99.90;;;;;;5075393;28;1232;-56
2022/02/11 08:54:00;;;;;;;;;;;15.90;99.90;;;;;;5075649;28;1245;-56
2022/02/11 08:56:28;;;;;;;;;;;16.00;99.90;;;;;;5075101;28;1906;-46
2022/02/11 08:58:55;;;;;;;;;;;16.00;99.90;;;;;;5075511;28;1211;-46
2022/02/11 09:01:21;;;;;;;;;;;16.00;99.90;;;;;;5074843;28;1206;-46
2022/02/11 09:03:46;;;;;;;;;;;15.90;99.90;;;;;;5075515;28;1199;-46
2022/02/11 09:06:12;;;;;;;;;;;16.00;99.90;;;;;;5075205;28;1239;-46
2022/02/11 09:08:40;;;;;;;;;;;16.00;99.90;;;;;;5055859;28;1200;-47
2022/02/11 09:11:08;;;;;;;;;;;16.00;99.90;;;;;;5073044;28;1270;-46
2022/02/11 09:13:34;;;;;;;;;;;16.10;99.90;;;;;;5075126;28;1132;-46
2022/02/11 09:16:00;;;;;;;;;;;16.10;99.90;;;;;;5075004;28;1898;-46
2022/02/11 09:18:27;;;;;;;;;;;16.10;99.90;;;;;;5075033;28;1071;-46
2022/02/11 09:20:53;;;;;;;;;;;16.10;99.90;;;;;;5075371;28;950;-46
2022/02/11 09:23:23;;;;;;;;;;;16.10;99.90;;;;;;5071610;28;1009;-46
2022/02/11 09:25:49;;;;;;;;;;;16.00;99.90;;;;;;5074949;28;955;-46
2022/02/11 09:28:15;;;;;;;;;;;16.00;99.90;;;;;;5075114;28;1071;-46
2022/02/11 09:30:41;;;;;;;;;;;16.00;99.90;;;;;;5075290;28;900;-46
2022/02/11 09:33:08;;;;;;;;;;;16.00;99.90;;;;;;5075047;28;929;-46
2022/02/11 09:35:34;;;;;;;;;;;15.90;99.90;;;;;;5074946;28;1906;-46
2022/02/11 09:38:00;;;;;;;;;;;16.00;99.90;;;;;;5075223;28;972;-46
2022/02/11 09:40:26;;;;;;;;;;;15.90;99.90;;;;;;5075455;28;870;-46
2022/02/11 09:42:54;;;;;;;;;;;15.90;99.90;;;;;;5075056;28;1147;-46
2022/02/11 09:45:20;;;;;;;;;;;15.90;99.90;;;;;;5072781;28;1243;-46
2022/02/11 09:47:46;;;;;;;;;;;15.90;99.90;;;;;;5074224;28;1113;-46
2022/02/11 09:50:12;;;;;;;;;;;15.90;99.90;;;;;;5073645;28;1293;-46
2022/02/11 09:52:39;;;;;;;;;;;15.90;99.90;;;;;;5073225;28;1528;-47
2022/02/11 09:57:51;;;;;;;;;;;15.90;99.90;;;;;;5078720;28;798;-47
2022/02/11 10:00:17;;;;;;;;;;;15.90;99.90;;;;;;5078235;28;1060;-46
2022/02/11 10:02:59;;;;;;;;;;;15.50;99.90;;;;;;5078033;28;1263;-46
2022/02/11 10:05:26;;;;;;;;;;;15.10;99.90;;;;;;5078042;28;1060;-47
2022/02/11 10:07:52;;;;;;;;;;;14.90;99.90;;;;;;5078841;28;1015;-46
2022/02/11 10:13:03;;;;;;;;;;;15.10;99.90;;;;;;5078820;28;743;-46
2022/02/11 10:15:29;;;;;;;;;;;15.30;99.90;;;;;;5060568;28;1902;-46
2022/02/11 10:17:58;;;;;;;;;;;15.40;99.90;;;;;;5078805;28;781;-46
2022/02/11 10:20:26;;;;;;;;;;;15.40;99.90;;;;;;5077803;28;887;-46
2022/02/11 10:23:01;;;;;;;;;;;15.50;99.90;;;;;;5073961;28;1036;-46
2022/02/11 10:25:27;;;;;;;;;;;15.60;99.90;;;;;;5078259;28;896;-46
2022/02/11 10:27:53;;;;;;;;;;;15.70;99.90;;;;;;5077482;28;866;-46
2022/02/11 10:30:22;;;;;;;;;;;15.80;99.90;;;;;;5078276;28;867;-46
2022/02/11 10:32:52;;;;;;;;;;;15.80;99.90;;;;;;5078350;28;1766;-46
2022/02/11 10:35:24;;;;;;;;;;;15.90;99.90;;;;;;5077667;28;1906;-46
2022/02/11 10:38:08;;;;;;;;;;;16.00;99.90;;;;;;5078252;28;1819;-46
2022/02/11 10:40:34;;;;;;;;;;;16.10;99.90;;;;;;5077738;28;997;-56
2022/02/11 10:43:01;;;;;;;;;;;16.10;99.90;;;;;;5077911;28;1100;-56
2022/02/11 10:45:41;;;;;;;;;;;16.20;99.90;;;;;;5078125;28;805;-56
2022/02/11 10:48:10;;;;;;;;;;;16.30;99.90;;;;;;5078285;28;790;-56
2022/02/11 10:50:36;;;;;;;;;;;16.30;99.90;;;;;;5077349;28;855;-56
2022/02/11 10:53:02;;;;;;;;;;;16.40;99.90;;;;;;5077718;28;1076;-56
2022/02/11 10:55:28;;;;;;;;;;;16.40;99.90;;;;;;5078008;28;1909;-56
2022/02/11 10:57:55;;;;;;;;;;;16.50;99.90;;;;;;5077626;28;802;-56
2022/02/11 11:00:23;;;;;;;;;;;16.50;99.90;;;;;;5076955;28;888;-56
2022/02/11 11:02:49;;;;;;;;;;;16.60;99.90;;;;;;5075922;28;1076;-56
2022/02/11 11:05:15;;;;;;;;;;;16.70;99.90;;;;;;5077572;28;816;-56
2022/02/11 11:07:42;;;;;;;;;;;16.70;99.90;;;;;;5058469;28;838;-56
2022/02/11 11:10:12;;;;;;;;;;;16.70;99.90;;;;;;5077643;28;855;-56
2022/02/11 11:12:41;;;;;;;;;;;16.80;99.90;;;;;;5076655;28;1052;-56
2022/02/11 11:15:08;;;;;;;;;;;16.80;99.90;;;;;;5075844;28;1977;-56
2022/02/11 11:17:36;;;;;;;;;;;16.90;99.90;;;;;;5058151;28;1235;-56
2022/02/11 11:20:03;;;;;;;;;;;16.90;99.90;;;;;;5076540;28;1290;-56
2022/02/11 11:22:32;;;;;;;;;;;17.00;99.90;;;;;;5076474;28;1373;-55
2022/02/11 11:25:00;;;;;;;;;;;17.00;99.90;;;;;;5075496;28;1538;-55
2022/02/11 11:27:38;;;;;;;;;;;17.00;99.90;;;;;;5075165;28;1327;-46
2022/02/11 11:30:24;;;;;;;;;;;17.10;99.90;;;;;;5076194;28;1503;-46
2022/02/11 11:33:09;;;;;;;;;;;17.10;99.90;;;;;;5075481;28;1655;-46
2022/02/11 11:35:36;;;;;;;;;;;17.10;99.90;;;;;;5076405;28;1956;-46
2022/02/11 11:38:21;;;;;;;;;;;17.10;99.90;;;;;;5076464;28;1317;-46
2022/02/11 11:41:08;;;;;;;;;;;17.10;99.90;;;;;;5076107;28;1040;-46
2022/02/11 11:43:36;;;;;;;;;;;17.10;99.90;;;;;;5075501;28;1183;-46
2022/02/11 11:46:22;;;;;;;;;;;17.20;99.90;;;;;;5074224;28;1445;-46
2022/02/11 11:48:51;;;;;;;;;;;17.20;99.90;;;;;;5076542;28;1092;-46
2022/02/11 11:51:17;;;;;;;;;;;17.30;99.90;;;;;;5074917;28;973;-46
2022/02/11 11:53:43;;;;;;;;;;;17.30;99.90;;;;;;5074810;28;1250;-46
2022/02/11 11:56:28;;;;;;;;;;;17.30;99.90;;;;;;5076213;28;1909;-46
2022/02/11 11:58:54;;;;;;;;;;;17.30;99.90;;;;;;5076362;28;873;-46
2022/02/11 12:01:20;;;;;;;;;;;17.40;99.90;;;;;;5076487;28;810;-46
2022/02/11 12:04:04;;;;;;;;;;;17.40;99.90;;;;;;5075071;28;1258;-46
2022/02/11 12:06:31;;;;;;;;;;;17.40;99.90;;;;;;5076378;28;1052;-46
2022/02/11 12:08:57;;;;;;;;;;;17.40;99.90;;;;;;5053027;28;1112;-46
2022/02/11 12:11:23;;;;;;;;;;;17.40;99.90;;;;;;5075904;28;1280;-46
2022/02/11 12:13:49;;;;;;;;;;;17.30;99.90;;;;;;5076121;28;841;-46
2022/02/11 12:16:17;;;;;;;;;;;17.40;99.90;;;;;;5075705;28;1906;-46
2022/02/11 12:18:46;;;;;;;;;;;17.40;99.90;;;;;;5075660;28;1420;-46
2022/02/11 12:21:13;;;;;;;;;;;17.40;99.90;;;;;;5075651;28;895;-46
2022/02/11 12:29:08;;;;;;;;;;;17.50;99.90;;;;;;5075304;28;1045;-46
2022/02/11 12:31:34;;;;;;;;;;;17.50;99.90;;;;;;5073609;28;1247;-46
2022/02/11 12:34:16;;;;;;;;;;;17.50;99.90;;;;;;5075390;28;1246;-46
2022/02/11 12:36:43;;;;;;;;;;;17.50;99.90;;;;;;5058056;28;1898;-55
2022/02/11 12:39:22;;;;;;;;;;;17.50;99.90;;;;;;5074889;28;1107;-55
2022/02/11 12:41:50;;;;;;;;;;;17.50;99.90;;;;;;5075129;28;1178;-56
2022/02/11 12:44:23;;;;;;;;;;;17.50;99.90;;;;;;5074758;28;1385;-57
2022/02/11 12:46:52;;;;;;;;;;;17.50;99.90;;;;;;5076995;28;1303;-56
2022/02/11 12:49:19;;;;;;;;;;;17.60;99.90;;;;;;5074952;28;1084;-56
2022/02/11 12:51:49;;;;;;;;;;;17.60;99.90;;;;;;5075948;28;1009;-56
2022/02/11 12:54:15;;;;;;;;;;;17.60;99.90;;;;;;5070138;28;1118;-56
2022/02/11 12:56:41;;;;;;;;;;;17.70;99.90;;;;;;5057614;28;1977;-56
2022/02/11 12:59:07;;;;;;;;;;;17.70;99.90;;;;;;5074611;28;1205;-56
2022/02/11 13:01:33;;;;;;;;;;;17.70;99.90;;;;;;5075689;28;945;-56
2022/02/11 13:03:59;;;;;;;;;;;17.70;99.90;;;;;;5071873;28;962;-56
2022/02/11 13:06:25;;;;;;;;;;;17.70;99.90;;;;;;5074998;28;906;-56
2022/02/11 13:09:01;;;;;;;;;;;17.70;99.90;;;;;;5073615;28;1188;-57
2022/02/11 13:11:27;;;;;;;;;;;17.70;99.90;;;;;;5075244;28;1100;-56
2022/02/11 13:14:04;;;;;;;;;;;17.60;99.90;;;;;;5070785;28;1339;-46
2022/02/11 13:16:34;;;;;;;;;;;17.50;99.90;;;;;;5074972;28;1910;-46
2022/02/11 13:19:13;;;;;;;;;;;17.50;99.90;;;;;;5070695;28;847;-46
2022/02/11 13:21:40;;;;;;;;;;;17.40;99.90;;;;;;5073394;28;1125;-46
2022/02/11 13:24:06;;;;;;;;;;;17.50;99.90;;;;;;5075440;28;943;-47
2022/02/11 13:26:32;;;;;;;;;;;17.50;99.90;;;;;;5075356;28;890;-46
2022/02/11 13:28:58;;;;;;;;;;;17.50;99.90;;;;;;5075042;28;940;-47
2022/02/11 13:31:24;;;;;;;;;;;17.50;99.90;;;;;;5077833;28;792;-46
2022/02/11 13:34:03;;;;;;;;;;;17.50;99.90;;;;;;5078003;28;1378;-46
2022/02/11 13:36:29;;;;;;;;;;;17.50;99.90;;;;;;5078750;28;1910;-46
2022/02/11 13:38:59;;;;;;;;;;;17.40;99.90;;;;;;5079188;28;1044;-46
2022/02/11 13:41:33;;;;;;;;;;;17.40;99.90;;;;;;5079043;28;758;-46
2022/02/11 13:44:04;;;;;;;;;;;17.40;99.90;;;;;;5078547;28;969;-46
2022/02/11 13:46:34;;;;;;;;;;;17.40;99.90;;;;;;5078685;28;931;-46
2022/02/11 13:49:03;;;;;;;;;;;17.30;99.90;;;;;;5077775;28;1283;-46
2022/02/11 13:51:29;;;;;;;;;;;17.30;99.90;;;;;;5077500;28;1179;-46
2022/02/11 13:53:55;;;;;;;;;;;17.30;99.90;;;;;;5078233;28;1357;-46
2022/02/11 13:56:35;;;;;;;;;;;17.40;99.90;;;;;;5078407;28;1913;-46
2022/02/11 13:59:01;;;;;;;;;;;17.40;99.90;;;;;;5077300;28;1130;-46
2022/02/11 14:01:28;;;;;;;;;;;17.40;99.90;;;;;;5078271;28;1567;-46
2022/02/11 14:03:58;;;;;;;;;;;17.40;99.90;;;;;;5077858;28;1183;-47
2022/02/11 14:06:24;;;;;;;;;;;17.30;99.90;;;;;;5078493;28;1052;-47
2022/02/11 14:08:50;;;;;;;;;;;17.30;99.90;;;;;;5078806;28;820;-47
2022/02/11 14:11:20;;;;;;;;;;;17.30;99.90;;;;;;5077405;28;885;-47
2022/02/11 14:13:47;;;;;;;;;;;17.30;99.90;;;;;;5078259;28;895;-47
2022/02/11 14:16:14;;;;;;;;;;;17.40;99.90;;;;;;5078296;28;1957;-47
2022/02/11 14:18:43;;;;;;;;;;;17.40;99.90;;;;;;5077425;28;1115;-47
2022/02/11 14:21:12;;;;;;;;;;;17.40;99.90;;;;;;5077980;28;1040;-47
2022/02/11 14:23:38;;;;;;;;;;;17.40;99.90;;;;;;5077896;28;1211;-47
2022/02/11 14:26:04;;;;;;;;;;;17.40;99.90;;;;;;5077748;28;1025;-47
2022/02/11 14:28:30;;;;;;;;;;;17.40;99.90;;;;;;5078286;28;1001;-47
2022/02/11 14:30:57;;;;;;;;;;;17.40;99.90;;;;;;5077924;28;1009;-47
2022/02/11 14:33:23;;;;;;;;;;;17.40;99.90;;;;;;5077916;28;1187;-47
2022/02/11 14:35:49;;;;;;;;;;;17.40;99.90;;;;;;5078100;28;1902;-47
2022/02/11 14:38:15;;;;;;;;;;;17.40;99.90;;;;;;5078188;28;805;-47
2022/02/11 14:41:46;;;;;;;;;;;17.40;99.90;;;;;;5077892;28;789;-46
2022/02/11 14:43:29;;;;;;;;;;;17.40;99.90;;;;;;5076278;28;1519;-47
2022/02/11 14:45:55;;;;;;;;;;;17.40;99.90;;;;;;5074645;28;836;-47
2022/02/11 14:48:22;;;;;;;;;;;17.40;99.90;;;;;;5075886;28;1075;-47
2022/02/11 14:50:48;;;;;;;;;;;17.40;99.90;;;;;;5076852;28;1349;-47
2022/02/11 14:53:14;;;;;;;;;;;17.30;99.90;;;;;;5077433;28;1485;-47
2022/02/11 14:55:40;;;;;;;;;;;17.10;99.90;;;;;;5077156;28;1918;-47
2022/02/11 14:58:06;;;;;;;;;;;16.90;99.90;;;;;;5076996;28;1289;-48
2022/02/11 15:00:32;;;;;;;;;;;16.80;99.90;;;;;;5077326;28;1115;-47
2022/02/11 15:02:58;;;;;;;;;;;16.80;99.90;;;;;;5077307;28;1340;-47
2022/02/11 15:05:24;;;;;;;;;;;16.80;99.90;;;;;;5076953;28;1494;-47
2022/02/11 15:07:50;;;;;;;;;;;16.70;99.90;;;;;;5077278;28;885;-47
2022/02/11 15:10:16;;;;;;;;;;;16.70;99.90;;;;;;5077093;28;852;-46
2022/02/11 15:12:42;;;;;;;;;;;16.70;99.90;;;;;;5059583;28;1056;-47
2022/02/11 15:15:09;;;;;;;;;;;16.70;99.90;;;;;;5076339;28;1040;-47
2022/02/11 15:17:34;;;;;;;;;;;16.80;99.90;;;;;;5077566;28;1952;-47
2022/02/11 15:20:01;;;;;;;;;;;16.80;99.90;;;;;;5077101;28;804;-47
2022/02/11 15:22:27;;;;;;;;;;;16.80;99.90;;;;;;5059672;28;1364;-47
2022/02/11 15:24:57;;;;;;;;;;;16.80;99.90;;;;;;5067275;28;1346;-46
2022/02/11 15:27:23;;;;;;;;;;;16.80;99.90;;;;;;5072393;28;803;-46
2022/02/11 15:29:49;;;;;;;;;;;16.80;99.90;;;;;;5059259;28;1067;-46
2022/02/11 15:32:15;;;;;;;;;;;16.90;99.90;;;;;;5076966;28;827;-46
2022/02/11 15:34:41;;;;;;;;;;;16.90;99.90;;;;;;5059343;28;899;-47
2022/02/11 15:37:07;;;;;;;;;;;16.90;99.90;;;;;;5076182;28;1918;-46
2022/02/11 15:39:34;;;;;;;;;;;16.90;99.90;;;;;;5076882;28;895;-47
2022/02/11 15:42:00;;;;;;;;;;;16.90;99.90;;;;;;5075662;28;1136;-46
2022/02/11 15:44:26;;;;;;;;;;;16.90;99.90;;;;;;5076174;28;678;-56
2022/02/11 15:46:52;;;;;;;;;;;16.90;99.90;;;;;;5076271;28;746;-56
2022/02/11 15:49:19;;;;;;;;;;;16.90;99.90;;;;;;5058683;28;885;-56
2022/02/11 15:51:45;;;;;;;;;;;16.90;99.90;;;;;;5076059;28;859;-57
2022/02/11 15:54:11;;;;;;;;;;;16.90;99.90;;;;;;5075838;28;766;-56
2022/02/11 15:56:37;;;;;;;;;;;16.80;99.90;;;;;;5058547;28;1981;-56
2022/02/11 15:59:03;;;;;;;;;;;16.80;99.90;;;;;;5076436;28;849;-56
2022/02/11 16:01:30;;;;;;;;;;;16.80;99.90;;;;;;5058163;28;873;-56
2022/02/11 16:03:56;;;;;;;;;;;16.80;99.90;;;;;;5076369;28;825;-56
2022/02/11 16:06:22;;;;;;;;;;;16.70;99.90;;;;;;5076040;28;828;-56
2022/02/11 16:08:48;;;;;;;;;;;16.70;99.90;;;;;;5074862;28;1254;-56
2022/02/11 16:11:14;;;;;;;;;;;16.70;99.90;;;;;;5075798;28;793;-56
2022/02/11 16:13:40;;;;;;;;;;;16.70;99.90;;;;;;5076189;28;773;-47
2022/02/11 16:16:06;;;;;;;;;;;16.60;99.90;;;;;;5058352;28;1910;-56
2022/02/11 16:18:33;;;;;;;;;;;16.60;99.90;;;;;;5075737;28;801;-56
2022/02/11 16:20:59;;;;;;;;;;;16.60;99.90;;;;;;5075476;28;1029;-56
2022/02/11 16:23:26;;;;;;;;;;;16.60;99.90;;;;;;5075345;28;901;-56
2022/02/11 16:25:56;;;;;;;;;;;16.50;99.90;;;;;;5076091;28;876;-56
2022/02/11 16:28:22;;;;;;;;;;;16.50;99.90;;;;;;5072589;28;798;-56
2022/02/11 16:30:48;;;;;;;;;;;16.50;99.90;;;;;;5075505;28;781;-57
2022/02/11 16:33:14;;;;;;;;;;;16.40;99.90;;;;;;5076039;28;864;-56
2022/02/11 16:35:41;;;;;;;;;;;16.40;99.90;;;;;;5075378;28;1910;-56
2022/02/11 16:38:08;;;;;;;;;;;16.40;99.90;;;;;;5075670;28;826;-56
2022/02/11 16:40:34;;;;;;;;;;;16.30;99.90;;;;;;5075327;28;1096;-56
2022/02/11 16:43:01;;;;;;;;;;;16.30;99.90;;;;;;5075105;28;1169;-58
2022/02/11 16:45:29;;;;;;;;;;;16.30;99.90;;;;;;5075646;28;871;-56
2022/02/11 16:47:55;;;;;;;;;;;16.20;99.90;;;;;;5058303;28;970;-56
2022/02/11 16:50:21;;;;;;;;;;;16.20;99.90;;;;;;5075382;28;857;-57
2022/02/11 16:52:47;;;;;;;;;;;16.20;99.90;;;;;;5075750;28;801;-56
2022/02/11 16:55:13;;;;;;;;;;;16.10;99.90;;;;;;5057247;28;901;-56
2022/02/11 16:57:40;;;;;;;;;;;16.10;99.90;;;;;;5074731;28;1906;-56
2022/02/11 17:00:07;;;;;;;;;;;16.10;99.90;;;;;;5074861;28;920;-56
2022/02/11 17:02:33;;;;;;;;;;;16.10;99.90;;;;;;5073110;28;759;-56
2022/02/11 17:04:59;;;;;;;;;;;16.00;99.90;;;;;;5077722;28;790;-56
2022/02/11 17:07:26;;;;;;;;;;;16.00;99.90;;;;;;5079605;28;857;-56
2022/02/11 17:09:52;;;;;;;;;;;16.00;99.90;;;;;;5079144;28;951;-56
2022/02/11 17:12:18;;;;;;;;;;;16.00;99.90;;;;;;5079491;28;805;-56
2022/02/11 17:14:44;;;;;;;;;;;16.00;99.90;;;;;;5078283;28;954;-56
2022/02/11 17:17:10;;;;;;;;;;;15.90;99.90;;;;;;5079452;28;1902;-57
2022/02/11 17:19:36;;;;;;;;;;;15.90;99.90;;;;;;5079008;28;809;-47
2022/02/11 17:22:02;;;;;;;;;;;15.90;99.90;;;;;;5079333;28;814;-56
2022/02/11 17:24:29;;;;;;;;;;;16.00;99.90;;;;;;5079380;28;833;-56
2022/02/11 17:26:56;;;;;;;;;;;15.90;99.90;;;;;;5079203;28;1387;-56
2022/02/11 17:29:23;;;;;;;;;;;15.90;99.90;;;;;;5077116;28;1040;-57
2022/02/11 17:31:49;;;;;;;;;;;15.90;99.90;;;;;;5078608;28;842;-56
2022/02/11 17:34:15;;;;;;;;;;;15.90;99.90;;;;;;5079203;28;868;-56
2022/02/11 17:36:41;;;;;;;;;;;15.90;99.90;;;;;;5079064;28;1905;-47
2022/02/11 17:39:07;;;;;;;;;;;15.90;99.90;;;;;;5075653;28;762;-46
2022/02/11 17:41:33;;;;;;;;;;;15.90;99.90;;;;;;5078688;28;875;-46
2022/02/11 17:44:00;;;;;;;;;;;15.90;99.90;;;;;;5079042;28;1544;-47
2022/02/11 17:46:30;;;;;;;;;;;15.90;99.90;;;;;;5078323;28;1038;-46
2022/02/11 17:48:56;;;;;;;;;;;15.90;99.90;;;;;;5079316;28;993;-48
2022/02/11 17:51:22;;;;;;;;;;;15.90;99.90;;;;;;5078404;28;873;-47
2022/02/11 17:53:48;;;;;;;;;;;15.90;99.90;;;;;;5061076;28;1197;-47
2022/02/11 17:56:14;;;;;;;;;;;15.90;99.90;;;;;;5078749;28;1922;-56
2022/02/11 17:58:40;;;;;;;;;;;15.90;99.90;;;;;;5078629;28;758;-56
2022/02/11 18:01:06;;;;;;;;;;;15.80;99.90;;;;;;5077458;28;1462;-47
2022/02/11 18:03:33;;;;;;;;;;;15.80;99.90;;;;;;5078875;28;759;-46
2022/02/11 18:05:59;;;;;;;;;;;15.80;99.90;;;;;;5078821;28;841;-46
2022/02/11 18:08:25;;;;;;;;;;;15.80;99.90;;;;;;5075155;28;1594;-46
2022/02/11 18:10:54;;;;;;;;;;;15.80;99.90;;;;;;5077960;28;1246;-46
2022/02/11 18:13:21;;;;;;;;;;;15.70;99.90;;;;;;5078486;28;813;-46
2022/02/11 18:15:47;;;;;;;;;;;15.70;99.90;;;;;;5077780;28;837;-46
2022/02/11 18:18:14;;;;;;;;;;;15.70;99.90;;;;;;5077368;28;1902;-46
2022/02/11 18:20:40;;;;;;;;;;;15.70;99.90;;;;;;5077976;28;906;-46
2022/02/11 18:23:06;;;;;;;;;;;15.70;99.90;;;;;;5078521;28;1099;-47